sensor_id;sensor_type;location;lat;lon;timestamp;pressure;altitude;pressure_sealevel;temperature;humidity
27304;BME280;14791;52.392;13.092;2023-01-26T00:00:03;102012.22;;;7.28;51.61
27304;BME280;14791;52.392;13.092;2023-01-26T00:02:32;102013.48;;;7.31;51.47
27304;BME280;14791;52.392;13.092;2023-01-26T00:05:01;102005.45;;;7.32;51.44
27304;BME280;14791;52.392;13.092;2023-01-26T00:07:29;102010.27;;;7.34;51.43
27304;BME280;14791;52.392;13.092;2023-01-26T00:09:58;102003.63;;;7.34;51.45
27304;BME280;14791;52.392;13.092;2023-01-26T00:12:27;101994.75;;;7.35;51.42
27304;BME280;14791;52.392;13.092;2023-01-26T00:14:56;101996.52;;;7.35;51.36
27304;BME280;14791;52.392;13.092;2023-01-26T00:17:25;102001.89;;;7.33;51.35
27304;BME280;14791;52.392;13.092;2023-01-26T00:19:56;101987.73;;;7.33;51.38
27304;BME280;14791;52.392;13.092;2023-01-26T00:22:26;101994.81;;;7.32;51.43
27304;BME280;14791;52.392;13.092;2023-01-26T00:24:55;101987.34;;;7.30;51.43
27304;BME280;14791;52.392;13.092;2023-01-26T00:27:24;101984.28;;;7.29;51.45
27304;BME280;14791;52.392;13.092;2023-01-26T00:29:53;101973.64;;;7.29;51.43
27304;BME280;14791;52.392;13.092;2023-01-26T00:32:21;101963.94;;;7.28;51.47
27304;BME280;14791;52.392;13.092;2023-01-26T00:34:50;101963.02;;;7.29;51.48
27304;BME280;14791;52.392;13.092;2023-01-26T00:37:19;101967.83;;;7.31;51.34
27304;BME280;14791;52.392;13.092;2023-01-26T00:39:48;101965.70;;;7.28;51.28
27304;BME280;14791;52.392;13.092;2023-01-26T00:42:17;101968.48;;;7.23;51.33
27304;BME280;14791;52.392;13.092;2023-01-26T00:44:47;101969.45;;;7.20;51.43
27304;BME280;14791;52.392;13.092;2023-01-26T00:47:17;101963.36;;;7.17;51.45
27304;BME280;14791;52.392;13.092;2023-01-26T00:49:46;101959.41;;;7.15;51.43
27304;BME280;14791;52.392;13.092;2023-01-26T00:52:15;101958.20;;;7.11;51.41
27304;BME280;14791;52.392;13.092;2023-01-26T00:54:44;101962.28;;;7.08;51.50
27304;BME280;14791;52.392;13.092;2023-01-26T00:57:14;101952.64;;;7.03;51.52
27304;BME280;14791;52.392;13.092;2023-01-26T00:59:43;101954.53;;;7.00;51.53
27304;BME280;14791;52.392;13.092;2023-01-26T01:02:12;101949.73;;;6.96;51.64
27304;BME280;14791;52.392;13.092;2023-01-26T01:04:41;101943.56;;;6.96;51.74
27304;BME280;14791;52.392;13.092;2023-01-26T01:07:10;101947.08;;;6.96;51.86
27304;BME280;14791;52.392;13.092;2023-01-26T01:09:38;101944.86;;;6.97;51.80
27304;BME280;14791;52.392;13.092;2023-01-26T01:12:07;101944.86;;;6.97;51.75
27304;BME280;14791;52.392;13.092;2023-01-26T01:14:36;101942.67;;;6.97;51.68
27304;BME280;14791;52.392;13.092;2023-01-26T01:17:05;101944.00;;;6.97;51.69
27304;BME280;14791;52.392;13.092;2023-01-26T01:19:35;101936.46;;;6.96;51.76
27304;BME280;14791;52.392;13.092;2023-01-26T01:22:04;101936.46;;;6.96;51.82
27304;BME280;14791;52.392;13.092;2023-01-26T01:24:33;101933.80;;;6.96;51.85
27304;BME280;14791;52.392;13.092;2023-01-26T01:27:03;101929.81;;;6.96;51.93
27304;BME280;14791;52.392;13.092;2023-01-26T01:29:32;101923.70;;;6.94;51.99
27304;BME280;14791;52.392;13.092;2023-01-26T01:32:02;101928.95;;;6.96;51.98
27304;BME280;14791;52.392;13.092;2023-01-26T01:34:31;101922.31;;;6.96;52.01
27304;BME280;14791;52.392;13.092;2023-01-26T01:37:00;101920.98;;;6.96;52.03
27304;BME280;14791;52.392;13.092;2023-01-26T01:39:28;101921.36;;;6.98;51.99
27304;BME280;14791;52.392;13.092;2023-01-26T01:41:57;101923.98;;;7.00;51.97
27304;BME280;14791;52.392;13.092;2023-01-26T01:44:26;101913.38;;;6.98;51.93
27304;BME280;14791;52.392;13.092;2023-01-26T01:47:05;101913.35;;;7.00;51.94
27304;BME280;14791;52.392;13.092;2023-01-26T01:49:42;101914.25;;;6.99;51.98
27304;BME280;14791;52.392;13.092;2023-01-26T01:52:20;101919.13;;;6.99;52.02
27304;BME280;14791;52.392;13.092;2023-01-26T01:54:56;101917.83;;;6.98;51.89
27304;BME280;14791;52.392;13.092;2023-01-26T01:57:37;101910.92;;;6.92;51.84
27304;BME280;14791;52.392;13.092;2023-01-26T02:00:06;101911.50;;;6.87;51.78
27304;BME280;14791;52.392;13.092;2023-01-26T02:02:48;101910.30;;;6.83;51.80
27304;BME280;14791;52.392;13.092;2023-01-26T02:05:25;101909.49;;;6.79;51.85
27304;BME280;14791;52.392;13.092;2023-01-26T02:07:57;101906.47;;;6.76;52.00
27304;BME280;14791;52.392;13.092;2023-01-26T02:10:27;101900.81;;;6.72;52.12
27304;BME280;14791;52.392;13.092;2023-01-26T02:12:59;101900.41;;;6.71;52.20
27304;BME280;14791;52.392;13.092;2023-01-26T02:15:29;101894.64;;;6.72;52.17
27304;BME280;14791;52.392;13.092;2023-01-26T02:18:01;101887.11;;;6.73;52.17
27304;BME280;14791;52.392;13.092;2023-01-26T02:20:54;101884.88;;;6.72;52.20
27304;BME280;14791;52.392;13.092;2023-01-26T02:26:19;101881.45;;;6.69;52.16
27304;BME280;14791;52.392;13.092;2023-01-26T02:28:50;101879.88;;;6.62;52.16
27304;BME280;14791;52.392;13.092;2023-01-26T02:31:21;101876.51;;;6.55;52.18
27304;BME280;14791;52.392;13.092;2023-01-26T02:33:51;101872.56;;;6.53;52.15
27304;BME280;14791;52.392;13.092;2023-01-26T02:36:29;101865.61;;;6.49;52.10
27304;BME280;14791;52.392;13.092;2023-01-26T02:41:35;101855.61;;;6.43;52.31
27304;BME280;14791;52.392;13.092;2023-01-26T02:44:22;101857.05;;;6.38;52.53
27304;BME280;14791;52.392;13.092;2023-01-26T02:46:52;101851.83;;;6.35;52.69
27304;BME280;14791;52.392;13.092;2023-01-26T02:49:21;101850.51;;;6.35;52.60
27304;BME280;14791;52.392;13.092;2023-01-26T02:52:09;101846.92;;;6.36;52.55
27304;BME280;14791;52.392;13.092;2023-01-26T02:54:38;101845.26;;;6.32;52.46
27304;BME280;14791;52.392;13.092;2023-01-26T02:57:24;101850.63;;;6.30;52.40
27304;BME280;14791;52.392;13.092;2023-01-26T02:59:54;101848.98;;;6.25;52.46
27304;BME280;14791;52.392;13.092;2023-01-26T03:02:23;101851.64;;;6.25;52.43
27304;BME280;14791;52.392;13.092;2023-01-26T03:04:52;101853.40;;;6.26;52.39
27304;BME280;14791;52.392;13.092;2023-01-26T03:07:21;101852.44;;;6.28;52.37
27304;BME280;14791;52.392;13.092;2023-01-26T03:09:51;101851.95;;;6.30;52.36
27304;BME280;14791;52.392;13.092;2023-01-26T03:12:20;101849.67;;;6.33;52.34
27304;BME280;14791;52.392;13.092;2023-01-26T03:14:49;101840.78;;;6.34;52.27
27304;BME280;14791;52.392;13.092;2023-01-26T03:17:37;101846.92;;;6.36;52.22
27304;BME280;14791;52.392;13.092;2023-01-26T03:23:13;101841.71;;;6.33;52.16
27304;BME280;14791;52.392;13.092;2023-01-26T03:26:02;101844.02;;;6.29;52.11
27304;BME280;14791;52.392;13.092;2023-01-26T03:28:49;101848.09;;;6.26;52.17
27304;BME280;14791;52.392;13.092;2023-01-26T03:31:18;101841.11;;;6.22;52.30
27304;BME280;14791;52.392;13.092;2023-01-26T03:33:47;101848.95;;;6.26;52.27
27304;BME280;14791;52.392;13.092;2023-01-26T03:36:16;101840.91;;;6.29;52.26
27304;BME280;14791;52.392;13.092;2023-01-26T03:38:46;101837.73;;;6.33;52.23
27304;BME280;14791;52.392;13.092;2023-01-26T03:41:15;101838.08;;;6.37;52.17
27304;BME280;14791;52.392;13.092;2023-01-26T03:44:02;101843.29;;;6.40;52.14
27304;BME280;14791;52.392;13.092;2023-01-26T03:46:50;101836.22;;;6.39;52.23
27304;BME280;14791;52.392;13.092;2023-01-26T03:49:38;101837.61;;;6.37;52.41
27304;BME280;14791;52.392;13.092;2023-01-26T03:52:25;101842.86;;;6.39;52.46
27304;BME280;14791;52.392;13.092;2023-01-26T03:55:12;101833.56;;;6.39;52.33
27304;BME280;14791;52.392;13.092;2023-01-26T03:57:59;101834.09;;;6.37;52.21
27304;BME280;14791;52.392;13.092;2023-01-26T04:00:29;101832.83;;;6.34;52.12
27304;BME280;14791;52.392;13.092;2023-01-26T04:02:58;101831.56;;;6.32;51.94
27304;BME280;14791;52.392;13.092;2023-01-26T04:05:45;101826.77;;;6.29;52.06
27304;BME280;14791;52.392;13.092;2023-01-26T04:08:32;101823.34;;;6.25;52.28
27304;BME280;14791;52.392;13.092;2023-01-26T04:11:02;101831.73;;;6.25;52.36
27304;BME280;14791;52.392;13.092;2023-01-26T04:13:31;101823.28;;;6.27;52.48
27304;BME280;14791;52.392;13.092;2023-01-26T04:16:22;101826.68;;;6.32;52.52
27304;BME280;14791;52.392;13.092;2023-01-26T04:19:09;101827.12;;;6.33;52.62
27304;BME280;14791;52.392;13.092;2023-01-26T04:21:58;101820.85;;;6.35;52.72
27304;BME280;14791;52.392;13.092;2023-01-26T04:24:28;101816.75;;;6.40;52.69
27304;BME280;14791;52.392;13.092;2023-01-26T04:26:58;101816.56;;;6.46;52.53
27304;BME280;14791;52.392;13.092;2023-01-26T04:29:28;101814.16;;;6.53;52.52
27304;BME280;14791;52.392;13.092;2023-01-26T04:31:57;101809.19;;;6.57;52.52
27304;BME280;14791;52.392;13.092;2023-01-26T04:34:27;101807.23;;;6.64;52.42
27304;BME280;14791;52.392;13.092;2023-01-26T04:36:57;101808.91;;;6.68;52.27
27304;BME280;14791;52.392;13.092;2023-01-26T04:39:27;101801.34;;;6.69;52.05
27304;BME280;14791;52.392;13.092;2023-01-26T04:41:57;101804.55;;;6.66;52.00
27304;BME280;14791;52.392;13.092;2023-01-26T04:44:26;101803.29;;;6.63;52.06
27304;BME280;14791;52.392;13.092;2023-01-26T04:46:55;101802.89;;;6.62;52.06
27304;BME280;14791;52.392;13.092;2023-01-26T04:49:24;101807.46;;;6.56;51.93
27304;BME280;14791;52.392;13.092;2023-01-26T04:51:53;101804.93;;;6.52;51.95
27304;BME280;14791;52.392;13.092;2023-01-26T04:54:22;101802.40;;;6.47;51.96
27304;BME280;14791;52.392;13.092;2023-01-26T04:56:52;101802.52;;;6.43;51.98
27304;BME280;14791;52.392;13.092;2023-01-26T04:59:21;101803.05;;;6.39;51.95
27304;BME280;14791;52.392;13.092;2023-01-26T05:01:52;101802.27;;;6.35;52.00
27304;BME280;14791;52.392;13.092;2023-01-26T05:04:21;101801.07;;;6.31;52.11
27304;BME280;14791;52.392;13.092;2023-01-26T05:06:50;101800.67;;;6.30;52.28
27304;BME280;14791;52.392;13.092;2023-01-26T05:09:20;101792.70;;;6.30;52.42
27304;BME280;14791;52.392;13.092;2023-01-26T05:11:50;101793.52;;;6.32;52.45
27304;BME280;14791;52.392;13.092;2023-01-26T05:14:21;101789.87;;;6.36;52.51
27304;BME280;14791;52.392;13.092;2023-01-26T05:16:51;101789.28;;;6.41;52.44
27304;BME280;14791;52.392;13.092;2023-01-26T05:19:40;101783.08;;;6.42;52.30
27304;BME280;14791;52.392;13.092;2023-01-26T05:22:23;101790.30;;;6.37;52.10
27304;BME280;14791;52.392;13.092;2023-01-26T05:25:06;101791.38;;;6.30;52.09
27304;BME280;14791;52.392;13.092;2023-01-26T05:27:36;101790.23;;;6.22;52.21
27304;BME280;14791;52.392;13.092;2023-01-26T05:30:06;101791.62;;;6.21;52.35
27304;BME280;14791;52.392;13.092;2023-01-26T05:32:37;101789.84;;;6.21;52.44
27304;BME280;14791;52.392;13.092;2023-01-26T05:35:06;101784.90;;;6.24;52.36
27304;BME280;14791;52.392;13.092;2023-01-26T05:37:36;101790.67;;;6.23;52.17
27304;BME280;14791;52.392;13.092;2023-01-26T05:40:06;101782.77;;;6.20;52.24
27304;BME280;14791;52.392;13.092;2023-01-26T05:42:35;101785.48;;;6.18;52.27
27304;BME280;14791;52.392;13.092;2023-01-26T05:45:09;101786.44;;;6.16;52.33
27304;BME280;14791;52.392;13.092;2023-01-26T05:47:41;101793.59;;;6.12;52.30
27304;BME280;14791;52.392;13.092;2023-01-26T05:50:11;101788.34;;;6.11;52.18
27304;BME280;14791;52.392;13.092;2023-01-26T05:52:45;101793.30;;;6.07;52.24
27304;BME280;14791;52.392;13.092;2023-01-26T05:55:14;101794.66;;;6.05;52.34
27304;BME280;14791;52.392;13.092;2023-01-26T05:57:43;101799.56;;;6.04;52.55
27304;BME280;14791;52.392;13.092;2023-01-26T06:00:13;101805.22;;;6.08;52.68
27304;BME280;14791;52.392;13.092;2023-01-26T06:02:44;101809.51;;;6.12;52.64
27304;BME280;14791;52.392;13.092;2023-01-26T06:05:14;101811.64;;;6.16;52.55
27304;BME280;14791;52.392;13.092;2023-01-26T06:07:44;101805.78;;;6.20;52.37
27304;BME280;14791;52.392;13.092;2023-01-26T06:10:15;101807.05;;;6.23;52.29
27304;BME280;14791;52.392;13.092;2023-01-26T06:13:02;101807.55;;;6.21;52.25
27304;BME280;14791;52.392;13.092;2023-01-26T06:15:38;101799.73;;;6.14;52.17
27304;BME280;14791;52.392;13.092;2023-01-26T06:18:07;101804.69;;;6.10;52.27
27304;BME280;14791;52.392;13.092;2023-01-26T06:20:37;101801.27;;;6.07;52.33
27304;BME280;14791;52.392;13.092;2023-01-26T06:23:06;101802.68;;;6.04;52.41
27304;BME280;14791;52.392;13.092;2023-01-26T06:25:37;101809.34;;;6.02;52.54
27304;BME280;14791;52.392;13.092;2023-01-26T06:28:07;101808.02;;;6.02;52.55
27304;BME280;14791;52.392;13.092;2023-01-26T06:30:36;101803.55;;;6.04;52.52
27304;BME280;14791;52.392;13.092;2023-01-26T06:33:07;101804.38;;;6.06;52.54
27304;BME280;14791;52.392;13.092;2023-01-26T06:35:38;101803.45;;;6.07;52.54
27304;BME280;14791;52.392;13.092;2023-01-26T06:38:08;101810.00;;;6.10;52.47
27304;BME280;14791;52.392;13.092;2023-01-26T06:40:37;101813.08;;;6.11;52.40
27304;BME280;14791;52.392;13.092;2023-01-26T06:43:06;101813.02;;;6.13;52.33
27304;BME280;14791;52.392;13.092;2023-01-26T06:45:36;101809.94;;;6.13;52.30
27304;BME280;14791;52.392;13.092;2023-01-26T06:48:05;101814.78;;;6.14;52.25
27304;BME280;14791;52.392;13.092;2023-01-26T06:50:35;101811.67;;;6.14;52.26
27304;BME280;14791;52.392;13.092;2023-01-26T06:53:22;101807.23;;;6.15;52.33
27304;BME280;14791;52.392;13.092;2023-01-26T06:55:49;101810.69;;;6.18;52.36
27304;BME280;14791;52.392;13.092;2023-01-26T06:58:38;101812.51;;;6.16;52.30
27304;BME280;14791;52.392;13.092;2023-01-26T07:01:14;101813.00;;;6.14;52.30
27304;BME280;14791;52.392;13.092;2023-01-26T07:03:44;101809.02;;;6.14;52.40
27304;BME280;14791;52.392;13.092;2023-01-26T07:06:13;101808.52;;;6.16;52.37
27304;BME280;14791;52.392;13.092;2023-01-26T07:08:42;101807.60;;;6.17;52.13
27304;BME280;14791;52.392;13.092;2023-01-26T07:11:11;101810.25;;;6.17;51.99
27304;BME280;14791;52.392;13.092;2023-01-26T07:13:41;101804.14;;;6.15;51.92
27304;BME280;14791;52.392;13.092;2023-01-26T07:16:12;101798.03;;;6.12;51.88
27304;BME280;14791;52.392;13.092;2023-01-26T07:18:42;101797.66;;;6.09;51.88
27304;BME280;14791;52.392;13.092;2023-01-26T07:21:16;101799.02;;;6.08;52.04
27304;BME280;14791;52.392;13.092;2023-01-26T07:23:46;101799.47;;;6.07;52.20
27304;BME280;14791;52.392;13.092;2023-01-26T07:26:15;101799.84;;;6.10;52.28
27304;BME280;14791;52.392;13.092;2023-01-26T07:28:44;101801.55;;;6.12;52.34
27304;BME280;14791;52.392;13.092;2023-01-26T07:31:13;101799.23;;;6.16;52.32
27304;BME280;14791;52.392;13.092;2023-01-26T07:33:42;101800.84;;;6.22;52.18
27304;BME280;14791;52.392;13.092;2023-01-26T07:36:11;101803.84;;;6.26;52.04
27304;BME280;14791;52.392;13.092;2023-01-26T07:38:41;101803.37;;;6.27;51.97
27304;BME280;14791;52.392;13.092;2023-01-26T07:41:11;101812.17;;;6.29;51.88
27304;BME280;14791;52.392;13.092;2023-01-26T07:43:40;101812.67;;;6.27;51.76
27304;BME280;14791;52.392;13.092;2023-01-26T07:46:09;101810.14;;;6.22;51.77
27304;BME280;14791;52.392;13.092;2023-01-26T07:48:38;101822.88;;;6.26;51.81
27304;BME280;14791;52.392;13.092;2023-01-26T07:51:08;101818.06;;;6.24;51.83
27304;BME280;14791;52.392;13.092;2023-01-26T07:53:38;101818.09;;;6.22;51.69
27304;BME280;14791;52.392;13.092;2023-01-26T07:56:13;101826.55;;;6.20;51.72
27304;BME280;14791;52.392;13.092;2023-01-26T07:58:42;101822.63;;;6.18;51.87
27304;BME280;14791;52.392;13.092;2023-01-26T08:01:13;101824.84;;;6.17;51.93
27304;BME280;14791;52.392;13.092;2023-01-26T08:03:42;101824.79;;;6.21;52.00
27304;BME280;14791;52.392;13.092;2023-01-26T08:06:12;101826.42;;;6.25;52.09
27304;BME280;14791;52.392;13.092;2023-01-26T08:08:41;101826.77;;;6.29;52.14
27304;BME280;14791;52.392;13.092;2023-01-26T08:11:11;101822.67;;;6.33;52.00
27304;BME280;14791;52.392;13.092;2023-01-26T08:13:40;101819.90;;;6.38;51.86
27304;BME280;14791;52.392;13.092;2023-01-26T08:16:09;101826.50;;;6.39;51.68
27304;BME280;14791;52.392;13.092;2023-01-26T08:18:43;101826.91;;;6.41;51.65
27304;BME280;14791;52.392;13.092;2023-01-26T08:21:14;101827.37;;;6.40;51.61
27304;BME280;14791;52.392;13.092;2023-01-26T08:23:48;101831.34;;;6.40;51.61
27304;BME280;14791;52.392;13.092;2023-01-26T08:26:18;101828.26;;;6.39;51.65
27304;BME280;14791;52.392;13.092;2023-01-26T08:28:48;101832.67;;;6.40;51.73
27304;BME280;14791;52.392;13.092;2023-01-26T08:31:18;101838.81;;;6.42;51.72
27304;BME280;14791;52.392;13.092;2023-01-26T08:33:51;101844.03;;;6.45;51.65
27304;BME280;14791;52.392;13.092;2023-01-26T08:36:19;101836.91;;;6.47;51.55
27304;BME280;14791;52.392;13.092;2023-01-26T08:38:49;101837.73;;;6.49;51.43
27304;BME280;14791;52.392;13.092;2023-01-26T08:41:18;101832.46;;;6.48;51.35
27304;BME280;14791;52.392;13.092;2023-01-26T08:43:47;101835.14;;;6.46;51.35
27304;BME280;14791;52.392;13.092;2023-01-26T08:46:17;101828.57;;;6.45;51.32
27304;BME280;14791;52.392;13.092;2023-01-26T08:48:46;101821.10;;;6.43;51.17
27304;BME280;14791;52.392;13.092;2023-01-26T08:51:15;101830.02;;;6.40;51.16
27304;BME280;14791;52.392;13.092;2023-01-26T08:53:44;101828.35;;;6.36;51.21
27304;BME280;14791;52.392;13.092;2023-01-26T08:56:13;101829.34;;;6.32;51.33
27304;BME280;14791;52.392;13.092;2023-01-26T08:58:42;101831.19;;;6.30;51.37
27304;BME280;14791;52.392;13.092;2023-01-26T09:01:13;101826.37;;;6.28;51.34
27304;BME280;14791;52.392;13.092;2023-01-26T09:03:43;101826.86;;;6.26;51.35
27304;BME280;14791;52.392;13.092;2023-01-26T09:06:12;101827.81;;;6.23;51.37
27304;BME280;14791;52.392;13.092;2023-01-26T09:08:42;101826.12;;;6.21;51.41
27304;BME280;14791;52.392;13.092;2023-01-26T09:11:11;101828.83;;;6.17;51.50
27304;BME280;14791;52.392;13.092;2023-01-26T09:13:40;101827.56;;;6.16;51.63
27304;BME280;14791;52.392;13.092;2023-01-26T09:16:15;101832.80;;;6.17;51.70
27304;BME280;14791;52.392;13.092;2023-01-26T09:18:47;101834.56;;;6.18;51.65
27304;BME280;14791;52.392;13.092;2023-01-26T09:21:15;101834.59;;;6.17;51.75
27304;BME280;14791;52.392;13.092;2023-01-26T09:23:44;101834.97;;;6.20;51.84
27304;BME280;14791;52.392;13.092;2023-01-26T09:26:13;101835.41;;;6.21;51.90
27304;BME280;14791;52.392;13.092;2023-01-26T09:28:42;101839.30;;;6.24;52.04
27304;BME280;14791;52.392;13.092;2023-01-26T09:31:11;101841.37;;;6.29;52.10
27304;BME280;14791;52.392;13.092;2023-01-26T09:33:40;101845.20;;;6.35;51.93
27304;BME280;14791;52.392;13.092;2023-01-26T09:36:10;101830.05;;;6.38;51.90
27304;BME280;14791;52.392;13.092;2023-01-26T09:38:39;101830.86;;;6.42;51.77
27304;BME280;14791;52.392;13.092;2023-01-26T09:43:56;101830.30;;;6.46;51.73
27304;BME280;14791;52.392;13.092;2023-01-26T09:51:52;101837.00;;;6.44;51.78
27304;BME280;14791;52.392;13.092;2023-01-26T09:56:59;101833.81;;;6.46;51.86
27304;BME280;14791;52.392;13.092;2023-01-26T09:59:35;101840.02;;;6.47;51.78
27304;BME280;14791;52.392;13.092;2023-01-26T10:02:24;101846.20;;;6.47;51.70
27304;BME280;14791;52.392;13.092;2023-01-26T10:04:50;101844.88;;;6.47;51.69
27304;BME280;14791;52.392;13.092;2023-01-26T10:07:20;101834.34;;;6.44;51.63
27304;BME280;14791;52.392;13.092;2023-01-26T10:09:53;101840.98;;;6.44;51.61
27304;BME280;14791;52.392;13.092;2023-01-26T10:12:34;101834.34;;;6.44;51.56
27304;BME280;14791;52.392;13.092;2023-01-26T10:17:52;101836.22;;;6.39;51.54
27304;BME280;14791;52.392;13.092;2023-01-26T10:20:38;101829.28;;;6.35;51.61
27304;BME280;14791;52.392;13.092;2023-01-26T10:23:20;101826.63;;;6.35;51.66
27304;BME280;14791;52.392;13.092;2023-01-26T10:25:50;101819.16;;;6.33;51.79
27304;BME280;14791;52.392;13.092;2023-01-26T10:28:34;101811.19;;;6.33;51.82
27304;BME280;14791;52.392;13.092;2023-01-26T10:31:07;101808.81;;;6.38;51.83
27304;BME280;14791;52.392;13.092;2023-01-26T10:33:36;101808.70;;;6.43;51.74
27304;BME280;14791;52.392;13.092;2023-01-26T10:36:07;101792.62;;;6.49;51.71
27304;BME280;14791;52.392;13.092;2023-01-26T10:38:39;101789.77;;;6.55;51.77
27304;BME280;14791;52.392;13.092;2023-01-26T10:43:57;101775.64;;;6.70;51.53
27304;BME280;14791;52.392;13.092;2023-01-26T10:51:41;101761.57;;;6.83;51.36
27304;BME280;14791;52.392;13.092;2023-01-26T10:54:23;101758.84;;;6.84;51.24
27304;BME280;14791;52.392;13.092;2023-01-26T10:57:01;101757.81;;;6.90;51.16
27304;BME280;14791;52.392;13.092;2023-01-26T10:59:54;101756.86;;;6.92;51.14
27304;BME280;14791;52.392;13.092;2023-01-26T11:02:33;101752.30;;;6.96;51.12
27304;BME280;14791;52.392;13.092;2023-01-26T11:07:42;101757.94;;;7.00;50.98
27304;BME280;14791;52.392;13.092;2023-01-26T11:13:13;101756.52;;;7.03;50.86
27304;BME280;14791;52.392;13.092;2023-01-26T11:15:46;101757.48;;;7.00;50.79
27304;BME280;14791;52.392;13.092;2023-01-26T11:20:59;101759.91;;;6.93;50.26
27304;BME280;14791;52.392;13.092;2023-01-26T11:23:48;101751.71;;;6.86;50.26
27304;BME280;14791;52.392;13.092;2023-01-26T11:26:29;101747.50;;;6.79;50.34
27304;BME280;14791;52.392;13.092;2023-01-26T11:29:15;101742.89;;;6.71;50.52
27304;BME280;14791;52.392;13.092;2023-01-26T11:37:37;101735.66;;;6.61;50.87
27304;BME280;14791;52.392;13.092;2023-01-26T11:43:03;101738.24;;;6.63;50.87
27304;BME280;14791;52.392;13.092;2023-01-26T11:48:25;101735.81;;;6.70;50.89
27304;BME280;14791;52.392;13.092;2023-01-26T11:50:56;101725.49;;;6.75;50.82
27304;BME280;14791;52.392;13.092;2023-01-26T11:59:05;101724.26;;;6.87;50.63
27304;BME280;14791;52.392;13.092;2023-01-26T12:01:42;101715.46;;;6.85;50.57
27304;BME280;14791;52.392;13.092;2023-01-26T12:04:13;101711.77;;;6.89;50.44
27304;BME280;14791;52.392;13.092;2023-01-26T12:06:44;101709.11;;;6.89;50.28
27304;BME280;14791;52.392;13.092;2023-01-26T12:09:25;101703.88;;;6.88;50.20
27304;BME280;14791;52.392;13.092;2023-01-26T12:12:03;101700.35;;;6.87;50.27
27304;BME280;14791;52.392;13.092;2023-01-26T12:14:40;101697.27;;;6.86;50.30
27304;BME280;14791;52.392;13.092;2023-01-26T12:22:39;101684.41;;;6.87;50.39
27304;BME280;14791;52.392;13.092;2023-01-26T12:25:59;101682.55;;;6.89;50.45
27304;BME280;14791;52.392;13.092;2023-01-26T12:30:57;101682.34;;;6.97;50.53
27304;BME280;14791;52.392;13.092;2023-01-26T12:33:25;101673.80;;;7.00;50.50
27304;BME280;14791;52.392;13.092;2023-01-26T12:38:50;101676.05;;;7.13;50.48
27304;BME280;14791;52.392;13.092;2023-01-26T12:41:30;101676.70;;;7.21;50.32
27304;BME280;14791;52.392;13.092;2023-01-26T12:46:41;101673.70;;;7.30;50.04
27304;BME280;14791;52.392;13.092;2023-01-26T12:49:21;101663.90;;;7.32;49.96
27304;BME280;14791;52.392;13.092;2023-01-26T12:51:55;101667.34;;;7.36;49.93
27304;BME280;14791;52.392;13.092;2023-01-26T12:57:15;101666.25;;;7.41;49.83
27304;BME280;14791;52.392;13.092;2023-01-26T12:59:40;101654.80;;;7.39;49.68
27304;BME280;14791;52.392;13.092;2023-01-26T13:02:28;101660.55;;;7.40;49.61
27304;BME280;14791;52.392;13.092;2023-01-26T13:04:48;101657.45;;;7.39;49.58
27304;BME280;14791;52.392;13.092;2023-01-26T13:07:35;101663.70;;;7.38;49.65
27304;BME280;14791;52.392;13.092;2023-01-26T13:12:51;101667.48;;;7.31;49.73
27304;BME280;14791;52.392;13.092;2023-01-26T13:15:24;101670.70;;;7.28;49.74
27304;BME280;14791;52.392;13.092;2023-01-26T13:18:01;101672.56;;;7.26;49.79
27304;BME280;14791;52.392;13.092;2023-01-26T13:20:47;101667.17;;;7.27;49.86
27304;BME280;14791;52.392;13.092;2023-01-26T13:26:11;101670.77;;;7.26;49.91
27304;BME280;14791;52.392;13.092;2023-01-26T13:28:42;101672.09;;;7.26;49.87
27304;BME280;14791;52.392;13.092;2023-01-26T13:31:12;101674.33;;;7.25;49.86
27304;BME280;14791;52.392;13.092;2023-01-26T13:33:41;101674.75;;;7.26;49.80
27304;BME280;14791;52.392;13.092;2023-01-26T13:36:15;101679.56;;;7.28;49.79
27304;BME280;14791;52.392;13.092;2023-01-26T13:38:47;101675.11;;;7.29;49.71
27304;BME280;14791;52.392;13.092;2023-01-26T13:41:19;101685.78;;;7.27;49.70
27304;BME280;14791;52.392;13.092;2023-01-26T13:44:07;101684.52;;;7.26;49.74
27304;BME280;14791;52.392;13.092;2023-01-26T13:46:47;101689.37;;;7.26;49.71
27304;BME280;14791;52.392;13.092;2023-01-26T13:49:37;101694.36;;;7.22;49.76
27304;BME280;14791;52.392;13.092;2023-01-26T13:54:48;101691.49;;;7.15;49.84
27304;BME280;14791;52.392;13.092;2023-01-26T13:57:26;101691.53;;;7.13;49.97
27304;BME280;14791;52.392;13.092;2023-01-26T13:59:51;101696.34;;;7.15;50.00
27304;BME280;14791;52.392;13.092;2023-01-26T14:05:02;101703.30;;;7.19;49.94
27304;BME280;14791;52.392;13.092;2023-01-26T14:07:39;101701.12;;;7.19;49.99
27304;BME280;14791;52.392;13.092;2023-01-26T14:10:22;101696.66;;;7.19;49.86
27304;BME280;14791;52.392;13.092;2023-01-26T14:12:49;101698.03;;;7.18;49.82
27304;BME280;14791;52.392;13.092;2023-01-26T14:15:21;101698.97;;;7.17;49.87
27304;BME280;14791;52.392;13.092;2023-01-26T14:18:02;101706.94;;;7.17;49.87
27304;BME280;14791;52.392;13.092;2023-01-26T14:20:30;101709.16;;;7.16;49.75
27304;BME280;14791;52.392;13.092;2023-01-26T14:23:14;101706.22;;;7.12;49.65
27304;BME280;14791;52.392;13.092;2023-01-26T14:26:01;101705.50;;;7.07;49.60
27304;BME280;14791;52.392;13.092;2023-01-26T14:28:33;101702.27;;;6.97;49.61
27304;BME280;14791;52.392;13.092;2023-01-26T14:31:09;101701.68;;;6.87;49.67
27304;BME280;14791;52.392;13.092;2023-01-26T14:33:37;101701.49;;;6.78;49.72
27304;BME280;14791;52.392;13.092;2023-01-26T14:36:11;101697.75;;;6.71;49.87
27304;BME280;14791;52.392;13.092;2023-01-26T14:38:42;101696.09;;;6.67;50.02
27304;BME280;14791;52.392;13.092;2023-01-26T14:41:32;101699.70;;;6.64;50.16